sensor_id;sensor_type;location;lat;lon;timestamp;P1;durP1;ratioP1;P2;durP2;ratioP2
70825;SDS011;58446;41.490;22.098;2023-11-19T00:00:42;5.70;;;4.13;;
70825;SDS011;58446;41.490;22.098;2023-11-19T00:03:08;5.30;;;3.70;;
70825;SDS011;58446;41.490;22.098;2023-11-19T00:05:33;5.88;;;4.13;;
70825;SDS011;58446;41.490;22.098;2023-11-19T00:07:59;5.17;;;4.17;;
70825;SDS011;58446;41.490;22.098;2023-11-19T00:10:25;5.22;;;3.90;;
70825;SDS011;58446;41.490;22.098;2023-11-19T00:12:50;5.80;;;4.50;;
70825;SDS011;58446;41.490;22.098;2023-11-19T00:15:16;6.30;;;4.65;;
70825;SDS011;58446;41.490;22.098;2023-11-19T00:17:46;5.80;;;4.10;;
70825;SDS011;58446;41.490;22.098;2023-11-19T00:20:13;5.57;;;4.10;;
70825;SDS011;58446;41.490;22.098;2023-11-19T00:22:41;5.00;;;3.38;;
70825;SDS011;58446;41.490;22.098;2023-11-19T00:25:10;5.75;;;3.80;;
70825;SDS011;58446;41.490;22.098;2023-11-19T00:27:36;6.05;;;3.97;;
70825;SDS011;58446;41.490;22.098;2023-11-19T00:30:05;5.35;;;3.92;;
70825;SDS011;58446;41.490;22.098;2023-11-19T00:32:33;5.93;;;4.13;;
70825;SDS011;58446;41.490;22.098;2023-11-19T00:34:58;5.80;;;3.90;;
70825;SDS011;58446;41.490;22.098;2023-11-19T00:37:24;5.03;;;3.50;;
70825;SDS011;58446;41.490;22.098;2023-11-19T00:39:50;5.90;;;4.22;;
70825;SDS011;58446;41.490;22.098;2023-11-19T00:42:17;5.20;;;4.07;;
70825;SDS011;58446;41.490;22.098;2023-11-19T00:44:42;5.30;;;3.67;;
70825;SDS011;58446;41.490;22.098;2023-11-19T00:47:08;5.70;;;3.45;;
70825;SDS011;58446;41.490;22.098;2023-11-19T00:49:34;5.50;;;3.60;;
70825;SDS011;58446;41.490;22.098;2023-11-19T00:52:00;5.40;;;3.55;;
70825;SDS011;58446;41.490;22.098;2023-11-19T00:54:27;5.30;;;3.95;;
70825;SDS011;58446;41.490;22.098;2023-11-19T00:56:53;6.77;;;4.37;;
70825;SDS011;58446;41.490;22.098;2023-11-19T00:59:19;5.82;;;4.15;;
70825;SDS011;58446;41.490;22.098;2023-11-19T01:01:45;5.93;;;3.88;;
70825;SDS011;58446;41.490;22.098;2023-11-19T01:04:13;5.30;;;4.07;;
70825;SDS011;58446;41.490;22.098;2023-11-19T01:06:39;5.63;;;3.97;;
70825;SDS011;58446;41.490;22.098;2023-11-19T01:09:05;5.70;;;3.63;;
70825;SDS011;58446;41.490;22.098;2023-11-19T01:11:31;5.63;;;4.00;;
70825;SDS011;58446;41.490;22.098;2023-11-19T01:13:56;7.68;;;3.80;;
70825;SDS011;58446;41.490;22.098;2023-11-19T01:16:22;5.80;;;3.73;;
70825;SDS011;58446;41.490;22.098;2023-11-19T01:18:48;5.63;;;4.03;;
70825;SDS011;58446;41.490;22.098;2023-11-19T01:21:14;5.80;;;4.47;;
70825;SDS011;58446;41.490;22.098;2023-11-19T01:23:40;5.10;;;3.95;;
70825;SDS011;58446;41.490;22.098;2023-11-19T01:26:09;5.65;;;4.30;;
70825;SDS011;58446;41.490;22.098;2023-11-19T01:28:36;5.25;;;3.88;;
70825;SDS011;58446;41.490;22.098;2023-11-19T01:31:02;6.03;;;4.15;;
70825;SDS011;58446;41.490;22.098;2023-11-19T01:33:28;5.57;;;4.23;;
70825;SDS011;58446;41.490;22.098;2023-11-19T01:35:55;5.72;;;4.40;;
70825;SDS011;58446;41.490;22.098;2023-11-19T01:38:22;6.10;;;4.47;;
70825;SDS011;58446;41.490;22.098;2023-11-19T01:40:48;5.32;;;3.42;;
70825;SDS011;58446;41.490;22.098;2023-11-19T01:43:30;5.50;;;3.50;;
70825;SDS011;58446;41.490;22.098;2023-11-19T01:46:00;5.10;;;3.75;;
70825;SDS011;58446;41.490;22.098;2023-11-19T01:48:27;5.47;;;4.05;;
70825;SDS011;58446;41.490;22.098;2023-11-19T01:50:53;5.70;;;4.00;;
70825;SDS011;58446;41.490;22.098;2023-11-19T01:53:19;6.47;;;4.23;;
70825;SDS011;58446;41.490;22.098;2023-11-19T01:55:47;5.43;;;3.90;;
70825;SDS011;58446;41.490;22.098;2023-11-19T01:58:14;4.90;;;3.55;;
70825;SDS011;58446;41.490;22.098;2023-11-19T02:00:40;5.68;;;4.15;;
70825;SDS011;58446;41.490;22.098;2023-11-19T02:03:06;6.67;;;4.10;;
70825;SDS011;58446;41.490;22.098;2023-11-19T02:05:33;7.32;;;4.65;;
70825;SDS011;58446;41.490;22.098;2023-11-19T02:08:00;6.35;;;4.55;;
70825;SDS011;58446;41.490;22.098;2023-11-19T02:10:26;5.65;;;4.03;;
70825;SDS011;58446;41.490;22.098;2023-11-19T02:12:52;5.88;;;3.80;;
70825;SDS011;58446;41.490;22.098;2023-11-19T02:15:18;6.43;;;3.77;;
70825;SDS011;58446;41.490;22.098;2023-11-19T02:17:44;4.97;;;3.47;;
70825;SDS011;58446;41.490;22.098;2023-11-19T02:20:10;5.05;;;3.53;;
70825;SDS011;58446;41.490;22.098;2023-11-19T02:22:40;6.00;;;3.23;;
70825;SDS011;58446;41.490;22.098;2023-11-19T02:25:12;5.85;;;3.30;;
70825;SDS011;58446;41.490;22.098;2023-11-19T02:27:59;4.95;;;3.00;;
70825;SDS011;58446;41.490;22.098;2023-11-19T02:30:26;5.35;;;3.45;;
70825;SDS011;58446;41.490;22.098;2023-11-19T02:32:54;5.18;;;3.42;;
70825;SDS011;58446;41.490;22.098;2023-11-19T02:35:24;6.37;;;4.13;;
70825;SDS011;58446;41.490;22.098;2023-11-19T02:37:51;6.97;;;3.63;;
70825;SDS011;58446;41.490;22.098;2023-11-19T02:40:17;6.80;;;3.78;;
70825;SDS011;58446;41.490;22.098;2023-11-19T02:42:42;6.03;;;4.10;;
70825;SDS011;58446;41.490;22.098;2023-11-19T02:45:09;5.38;;;3.78;;
70825;SDS011;58446;41.490;22.098;2023-11-19T02:47:42;5.40;;;3.78;;
70825;SDS011;58446;41.490;22.098;2023-11-19T02:50:11;5.10;;;3.30;;
70825;SDS011;58446;41.490;22.098;2023-11-19T02:52:43;5.30;;;4.03;;
70825;SDS011;58446;41.490;22.098;2023-11-19T02:55:11;5.47;;;3.30;;
70825;SDS011;58446;41.490;22.098;2023-11-19T02:57:40;5.40;;;3.80;;
70825;SDS011;58446;41.490;22.098;2023-11-19T03:00:16;7.65;;;3.40;;
70825;SDS011;58446;41.490;22.098;2023-11-19T03:02:48;5.18;;;3.00;;
70825;SDS011;58446;41.490;22.098;2023-11-19T03:05:24;6.20;;;3.57;;
70825;SDS011;58446;41.490;22.098;2023-11-19T03:07:50;4.90;;;3.13;;
70825;SDS011;58446;41.490;22.098;2023-11-19T03:10:16;5.30;;;3.60;;
70825;SDS011;58446;41.490;22.098;2023-11-19T03:12:43;5.33;;;3.57;;
70825;SDS011;58446;41.490;22.098;2023-11-19T03:15:10;5.15;;;3.50;;
70825;SDS011;58446;41.490;22.098;2023-11-19T03:17:39;6.13;;;4.30;;
70825;SDS011;58446;41.490;22.098;2023-11-19T03:20:06;6.50;;;4.15;;
70825;SDS011;58446;41.490;22.098;2023-11-19T03:22:40;5.60;;;3.67;;
70825;SDS011;58446;41.490;22.098;2023-11-19T03:25:09;5.87;;;3.97;;
70825;SDS011;58446;41.490;22.098;2023-11-19T03:27:36;5.55;;;3.88;;
70825;SDS011;58446;41.490;22.098;2023-11-19T03:30:02;5.63;;;4.10;;
70825;SDS011;58446;41.490;22.098;2023-11-19T03:32:30;4.68;;;3.08;;
70825;SDS011;58446;41.490;22.098;2023-11-19T03:34:57;7.10;;;5.25;;
70825;SDS011;58446;41.490;22.098;2023-11-19T03:37:23;6.13;;;4.13;;
70825;SDS011;58446;41.490;22.098;2023-11-19T03:39:49;6.15;;;4.20;;
70825;SDS011;58446;41.490;22.098;2023-11-19T03:42:14;5.18;;;3.70;;
70825;SDS011;58446;41.490;22.098;2023-11-19T03:44:40;5.67;;;4.03;;
70825;SDS011;58446;41.490;22.098;2023-11-19T03:47:06;5.20;;;3.33;;
70825;SDS011;58446;41.490;22.098;2023-11-19T03:49:32;5.20;;;3.17;;
70825;SDS011;58446;41.490;22.098;2023-11-19T03:51:57;5.33;;;3.73;;
70825;SDS011;58446;41.490;22.098;2023-11-19T03:54:23;5.32;;;3.65;;
70825;SDS011;58446;41.490;22.098;2023-11-19T03:56:49;5.20;;;3.43;;
70825;SDS011;58446;41.490;22.098;2023-11-19T03:59:14;5.55;;;3.72;;
70825;SDS011;58446;41.490;22.098;2023-11-19T04:01:40;5.37;;;3.60;;
70825;SDS011;58446;41.490;22.098;2023-11-19T04:04:06;5.53;;;3.63;;
70825;SDS011;58446;41.490;22.098;2023-11-19T04:06:32;5.57;;;4.03;;
70825;SDS011;58446;41.490;22.098;2023-11-19T04:08:57;5.23;;;4.00;;
70825;SDS011;58446;41.490;22.098;2023-11-19T04:11:23;5.50;;;3.80;;
70825;SDS011;58446;41.490;22.098;2023-11-19T04:13:49;5.37;;;3.87;;
70825;SDS011;58446;41.490;22.098;2023-11-19T04:16:14;5.22;;;3.70;;
70825;SDS011;58446;41.490;22.098;2023-11-19T04:18:40;6.03;;;3.50;;
70825;SDS011;58446;41.490;22.098;2023-11-19T04:21:06;5.30;;;3.83;;
70825;SDS011;58446;41.490;22.098;2023-11-19T04:23:32;5.00;;;3.33;;
70825;SDS011;58446;41.490;22.098;2023-11-19T04:25:58;5.93;;;3.70;;
70825;SDS011;58446;41.490;22.098;2023-11-19T04:28:26;5.72;;;3.83;;
70825;SDS011;58446;41.490;22.098;2023-11-19T04:30:52;5.33;;;3.77;;
70825;SDS011;58446;41.490;22.098;2023-11-19T04:33:18;6.32;;;3.88;;
70825;SDS011;58446;41.490;22.098;2023-11-19T04:35:44;5.38;;;3.55;;
70825;SDS011;58446;41.490;22.098;2023-11-19T04:38:10;5.87;;;3.77;;
70825;SDS011;58446;41.490;22.098;2023-11-19T04:40:36;6.00;;;3.95;;
70825;SDS011;58446;41.490;22.098;2023-11-19T04:43:01;5.67;;;3.43;;
70825;SDS011;58446;41.490;22.098;2023-11-19T04:45:27;4.93;;;3.20;;
70825;SDS011;58446;41.490;22.098;2023-11-19T04:47:53;5.23;;;3.57;;
70825;SDS011;58446;41.490;22.098;2023-11-19T04:50:18;5.32;;;3.63;;
70825;SDS011;58446;41.490;22.098;2023-11-19T04:52:44;5.50;;;3.70;;
70825;SDS011;58446;41.490;22.098;2023-11-19T04:55:10;5.57;;;3.55;;
70825;SDS011;58446;41.490;22.098;2023-11-19T04:57:37;5.80;;;3.67;;
70825;SDS011;58446;41.490;22.098;2023-11-19T05:00:04;6.13;;;4.07;;
70825;SDS011;58446;41.490;22.098;2023-11-19T05:02:30;6.30;;;4.47;;
70825;SDS011;58446;41.490;22.098;2023-11-19T05:04:56;6.47;;;4.07;;
70825;SDS011;58446;41.490;22.098;2023-11-19T05:07:22;14.10;;;8.10;;
70825;SDS011;58446;41.490;22.098;2023-11-19T05:09:48;8.75;;;6.28;;
70825;SDS011;58446;41.490;22.098;2023-11-19T05:12:13;6.73;;;4.50;;
70825;SDS011;58446;41.490;22.098;2023-11-19T05:14:39;6.20;;;4.68;;
70825;SDS011;58446;41.490;22.098;2023-11-19T05:17:05;6.13;;;4.27;;
70825;SDS011;58446;41.490;22.098;2023-11-19T05:19:32;5.68;;;3.53;;
70825;SDS011;58446;41.490;22.098;2023-11-19T05:21:58;6.72;;;4.80;;
70825;SDS011;58446;41.490;22.098;2023-11-19T05:24:24;6.30;;;4.07;;
70825;SDS011;58446;41.490;22.098;2023-11-19T05:26:50;7.75;;;5.43;;
70825;SDS011;58446;41.490;22.098;2023-11-19T05:29:17;7.50;;;5.25;;
70825;SDS011;58446;41.490;22.098;2023-11-19T05:31:42;7.30;;;4.97;;
70825;SDS011;58446;41.490;22.098;2023-11-19T05:34:08;23.93;;;14.17;;
70825;SDS011;58446;41.490;22.098;2023-11-19T05:36:34;24.58;;;13.88;;
70825;SDS011;58446;41.490;22.098;2023-11-19T05:39:00;11.50;;;6.82;;
70825;SDS011;58446;41.490;22.098;2023-11-19T05:41:30;7.85;;;5.40;;
70825;SDS011;58446;41.490;22.098;2023-11-19T05:43:55;7.23;;;5.17;;
70825;SDS011;58446;41.490;22.098;2023-11-19T05:46:21;6.57;;;4.20;;
70825;SDS011;58446;41.490;22.098;2023-11-19T05:48:47;6.75;;;4.78;;
70825;SDS011;58446;41.490;22.098;2023-11-19T05:51:13;8.90;;;4.53;;
70825;SDS011;58446;41.490;22.098;2023-11-19T05:53:40;9.35;;;5.90;;
70825;SDS011;58446;41.490;22.098;2023-11-19T05:56:06;8.30;;;4.90;;
70825;SDS011;58446;41.490;22.098;2023-11-19T05:58:34;8.45;;;5.30;;
70825;SDS011;58446;41.490;22.098;2023-11-19T06:01:01;10.73;;;6.25;;
70825;SDS011;58446;41.490;22.098;2023-11-19T06:03:28;10.48;;;6.47;;
70825;SDS011;58446;41.490;22.098;2023-11-19T06:05:53;8.27;;;5.60;;
70825;SDS011;58446;41.490;22.098;2023-11-19T06:08:22;10.40;;;5.95;;
70825;SDS011;58446;41.490;22.098;2023-11-19T06:10:48;26.17;;;16.38;;
70825;SDS011;58446;41.490;22.098;2023-11-19T06:13:15;24.63;;;18.63;;
70825;SDS011;58446;41.490;22.098;2023-11-19T06:15:41;18.60;;;13.63;;
70825;SDS011;58446;41.490;22.098;2023-11-19T06:18:08;14.73;;;11.50;;
70825;SDS011;58446;41.490;22.098;2023-11-19T06:20:33;15.57;;;10.50;;
70825;SDS011;58446;41.490;22.098;2023-11-19T06:22:59;12.45;;;7.75;;
70825;SDS011;58446;41.490;22.098;2023-11-19T06:25:26;12.80;;;8.63;;
70825;SDS011;58446;41.490;22.098;2023-11-19T06:27:52;10.95;;;6.53;;
70825;SDS011;58446;41.490;22.098;2023-11-19T06:30:18;14.30;;;8.07;;
70825;SDS011;58446;41.490;22.098;2023-11-19T06:32:44;12.77;;;7.65;;
70825;SDS011;58446;41.490;22.098;2023-11-19T06:35:10;13.15;;;8.93;;
70825;SDS011;58446;41.490;22.098;2023-11-19T06:37:38;14.03;;;9.60;;
70825;SDS011;58446;41.490;22.098;2023-11-19T06:40:05;24.88;;;13.70;;
70825;SDS011;58446;41.490;22.098;2023-11-19T06:42:31;17.20;;;9.68;;
70825;SDS011;58446;41.490;22.098;2023-11-19T06:44:57;27.67;;;15.63;;
70825;SDS011;58446;41.490;22.098;2023-11-19T06:47:26;23.63;;;14.33;;
70825;SDS011;58446;41.490;22.098;2023-11-19T06:49:53;14.93;;;9.20;;
70825;SDS011;58446;41.490;22.098;2023-11-19T06:52:19;18.90;;;11.40;;
70825;SDS011;58446;41.490;22.098;2023-11-19T06:54:44;14.83;;;9.73;;
70825;SDS011;58446;41.490;22.098;2023-11-19T06:57:13;13.10;;;9.27;;
70825;SDS011;58446;41.490;22.098;2023-11-19T06:59:39;13.10;;;9.67;;
70825;SDS011;58446;41.490;22.098;2023-11-19T07:02:05;14.83;;;10.93;;
70825;SDS011;58446;41.490;22.098;2023-11-19T07:04:31;13.05;;;9.40;;
70825;SDS011;58446;41.490;22.098;2023-11-19T07:07:00;11.60;;;9.23;;
70825;SDS011;58446;41.490;22.098;2023-11-19T07:09:26;15.88;;;11.60;;
70825;SDS011;58446;41.490;22.098;2023-11-19T07:11:54;12.00;;;10.73;;
70825;SDS011;58446;41.490;22.098;2023-11-19T07:14:19;10.75;;;8.68;;
70825;SDS011;58446;41.490;22.098;2023-11-19T07:16:45;11.93;;;8.40;;
70825;SDS011;58446;41.490;22.098;2023-11-19T07:19:15;12.68;;;9.05;;
70825;SDS011;58446;41.490;22.098;2023-11-19T07:21:41;16.17;;;10.60;;
70825;SDS011;58446;41.490;22.098;2023-11-19T07:24:09;12.80;;;9.75;;
70825;SDS011;58446;41.490;22.098;2023-11-19T07:26:36;12.82;;;8.98;;
70825;SDS011;58446;41.490;22.098;2023-11-19T07:29:05;13.00;;;10.00;;
70825;SDS011;58446;41.490;22.098;2023-11-19T07:31:32;11.25;;;8.30;;
70825;SDS011;58446;41.490;22.098;2023-11-19T07:33:58;9.32;;;6.97;;
70825;SDS011;58446;41.490;22.098;2023-11-19T07:36:24;9.43;;;7.00;;
70825;SDS011;58446;41.490;22.098;2023-11-19T07:38:49;9.13;;;6.40;;
70825;SDS011;58446;41.490;22.098;2023-11-19T07:41:15;8.90;;;6.90;;
70825;SDS011;58446;41.490;22.098;2023-11-19T07:43:44;7.85;;;5.45;;
70825;SDS011;58446;41.490;22.098;2023-11-19T07:46:10;7.82;;;5.28;;
70825;SDS011;58446;41.490;22.098;2023-11-19T07:48:38;10.20;;;6.50;;
70825;SDS011;58446;41.490;22.098;2023-11-19T07:51:04;10.48;;;6.93;;
70825;SDS011;58446;41.490;22.098;2023-11-19T07:53:30;26.08;;;14.02;;
70825;SDS011;58446;41.490;22.098;2023-11-19T07:55:55;11.80;;;7.57;;
70825;SDS011;58446;41.490;22.098;2023-11-19T07:58:21;11.13;;;7.63;;
70825;SDS011;58446;41.490;22.098;2023-11-19T08:00:47;11.53;;;6.13;;
70825;SDS011;58446;41.490;22.098;2023-11-19T08:03:12;7.25;;;4.35;;
70825;SDS011;58446;41.490;22.098;2023-11-19T08:05:38;8.03;;;4.80;;
70825;SDS011;58446;41.490;22.098;2023-11-19T08:08:04;8.20;;;5.60;;
70825;SDS011;58446;41.490;22.098;2023-11-19T08:10:30;7.77;;;4.97;;
70825;SDS011;58446;41.490;22.098;2023-11-19T08:12:55;7.03;;;5.40;;
70825;SDS011;58446;41.490;22.098;2023-11-19T08:15:21;6.77;;;4.60;;
70825;SDS011;58446;41.490;22.098;2023-11-19T08:17:47;6.85;;;4.32;;
70825;SDS011;58446;41.490;22.098;2023-11-19T08:20:12;5.53;;;3.87;;
70825;SDS011;58446;41.490;22.098;2023-11-19T08:22:38;5.53;;;3.97;;
70825;SDS011;58446;41.490;22.098;2023-11-19T08:25:05;6.88;;;5.07;;
70825;SDS011;58446;41.490;22.098;2023-11-19T08:27:32;5.93;;;4.00;;
70825;SDS011;58446;41.490;22.098;2023-11-19T08:29:57;6.13;;;4.25;;
70825;SDS011;58446;41.490;22.098;2023-11-19T08:32:26;6.05;;;4.10;;
70825;SDS011;58446;41.490;22.098;2023-11-19T08:34:52;9.35;;;5.30;;
70825;SDS011;58446;41.490;22.098;2023-11-19T08:37:18;9.77;;;4.90;;
70825;SDS011;58446;41.490;22.098;2023-11-19T08:39:46;19.23;;;8.63;;
70825;SDS011;58446;41.490;22.098;2023-11-19T08:42:12;13.32;;;7.78;;
70825;SDS011;58446;41.490;22.098;2023-11-19T08:44:38;10.10;;;6.18;;
70825;SDS011;58446;41.490;22.098;2023-11-19T08:47:04;7.00;;;4.73;;
70825;SDS011;58446;41.490;22.098;2023-11-19T08:49:30;7.95;;;4.97;;
70825;SDS011;58446;41.490;22.098;2023-11-19T08:51:55;6.70;;;4.97;;
70825;SDS011;58446;41.490;22.098;2023-11-19T08:54:21;6.60;;;4.70;;
70825;SDS011;58446;41.490;22.098;2023-11-19T08:56:48;6.40;;;3.90;;
70825;SDS011;58446;41.490;22.098;2023-11-19T08:59:13;8.20;;;5.37;;
70825;SDS011;58446;41.490;22.098;2023-11-19T09:01:40;6.88;;;4.15;;
70825;SDS011;58446;41.490;22.098;2023-11-19T09:04:06;6.57;;;4.15;;
70825;SDS011;58446;41.490;22.098;2023-11-19T09:06:32;7.37;;;5.47;;
70825;SDS011;58446;41.490;22.098;2023-11-19T09:08:58;6.80;;;4.38;;
70825;SDS011;58446;41.490;22.098;2023-11-19T09:11:27;6.18;;;4.20;;
70825;SDS011;58446;41.490;22.098;2023-11-19T09:13:53;6.45;;;4.85;;
70825;SDS011;58446;41.490;22.098;2023-11-19T09:16:19;7.30;;;4.93;;
70825;SDS011;58446;41.490;22.098;2023-11-19T09:18:44;6.35;;;4.47;;
70825;SDS011;58446;41.490;22.098;2023-11-19T09:21:11;6.33;;;4.40;;
70825;SDS011;58446;41.490;22.098;2023-11-19T09:23:37;5.45;;;3.40;;
70825;SDS011;58446;41.490;22.098;2023-11-19T09:26:08;6.50;;;4.15;;
70825;SDS011;58446;41.490;22.098;2023-11-19T09:28:35;6.50;;;4.72;;
70825;SDS011;58446;41.490;22.098;2023-11-19T09:31:01;7.00;;;4.40;;
70825;SDS011;58446;41.490;22.098;2023-11-19T09:33:30;7.82;;;5.20;;
70825;SDS011;58446;41.490;22.098;2023-11-19T09:35:55;8.10;;;5.13;;
70825;SDS011;58446;41.490;22.098;2023-11-19T09:38:23;6.95;;;4.50;;
70825;SDS011;58446;41.490;22.098;2023-11-19T09:40:48;8.40;;;4.13;;
70825;SDS011;58446;41.490;22.098;2023-11-19T09:43:15;6.85;;;4.85;;
70825;SDS011;58446;41.490;22.098;2023-11-19T09:45:50;6.07;;;4.15;;
70825;SDS011;58446;41.490;22.098;2023-11-19T09:48:17;5.60;;;3.70;;
70825;SDS011;58446;41.490;22.098;2023-11-19T09:50:47;6.93;;;4.95;;
70825;SDS011;58446;41.490;22.098;2023-11-19T09:53:14;6.80;;;4.70;;
70825;SDS011;58446;41.490;22.098;2023-11-19T09:55:41;6.50;;;4.43;;
70825;SDS011;58446;41.490;22.098;2023-11-19T09:58:08;10.07;;;7.03;;
70825;SDS011;58446;41.490;22.098;2023-11-19T10:00:34;9.77;;;5.73;;
70825;SDS011;58446;41.490;22.098;2023-11-19T10:03:00;14.73;;;7.75;;
70825;SDS011;58446;41.490;22.098;2023-11-19T10:05:30;7.88;;;5.35;;
70825;SDS011;58446;41.490;22.098;2023-11-19T10:07:56;9.52;;;5.25;;
70825;SDS011;58446;41.490;22.098;2023-11-19T10:10:22;6.00;;;4.03;;
70825;SDS011;58446;41.490;22.098;2023-11-19T10:12:50;5.80;;;3.90;;
70825;SDS011;58446;41.490;22.098;2023-11-19T10:15:23;6.60;;;4.05;;
70825;SDS011;58446;41.490;22.098;2023-11-19T10:17:50;7.93;;;4.97;;
70825;SDS011;58446;41.490;22.098;2023-11-19T10:20:16;8.20;;;4.60;;
70825;SDS011;58446;41.490;22.098;2023-11-19T10:22:42;9.93;;;7.13;;
70825;SDS011;58446;41.490;22.098;2023-11-19T10:25:21;9.57;;;4.70;;
70825;SDS011;58446;41.490;22.098;2023-11-19T10:27:50;8.63;;;4.78;;
70825;SDS011;58446;41.490;22.098;2023-11-19T10:30:23;8.50;;;4.77;;
70825;SDS011;58446;41.490;22.098;2023-11-19T10:33:07;8.32;;;5.30;;
70825;SDS011;58446;41.490;22.098;2023-11-19T10:35:34;6.15;;;4.18;;
70825;SDS011;58446;41.490;22.098;2023-11-19T10:38:01;11.38;;;8.88;;
70825;SDS011;58446;41.490;22.098;2023-11-19T10:40:38;8.75;;;5.55;;
70825;SDS011;58446;41.490;22.098;2023-11-19T10:43:07;11.37;;;8.10;;
70825;SDS011;58446;41.490;22.098;2023-11-19T10:45:33;8.40;;;6.28;;
70825;SDS011;58446;41.490;22.098;2023-11-19T10:48:03;7.85;;;4.18;;
70825;SDS011;58446;41.490;22.098;2023-11-19T10:50:33;7.28;;;5.28;;
70825;SDS011;58446;41.490;22.098;2023-11-19T10:52:59;12.75;;;8.68;;
70825;SDS011;58446;41.490;22.098;2023-11-19T10:55:32;8.20;;;5.23;;
70825;SDS011;58446;41.490;22.098;2023-11-19T10:58:03;8.38;;;5.72;;
70825;SDS011;58446;41.490;22.098;2023-11-19T11:00:33;9.77;;;7.00;;
70825;SDS011;58446;41.490;22.098;2023-11-19T11:03:17;8.85;;;6.45;;
70825;SDS011;58446;41.490;22.098;2023-11-19T11:05:48;8.13;;;5.38;;
70825;SDS011;58446;41.490;22.098;2023-11-19T11:08:14;7.10;;;4.90;;
70825;SDS011;58446;41.490;22.098;2023-11-19T11:10:45;7.82;;;4.95;;
70825;SDS011;58446;41.490;22.098;2023-11-19T11:13:13;5.95;;;3.35;;
70825;SDS011;58446;41.490;22.098;2023-11-19T11:15:39;30.27;;;13.05;;
70825;SDS011;58446;41.490;22.098;2023-11-19T11:18:08;17.45;;;8.07;;
70825;SDS011;58446;41.490;22.098;2023-11-19T11:20:34;18.13;;;8.03;;
70825;SDS011;58446;41.490;22.098;2023-11-19T11:39:33;22.20;;;13.35;;
70825;SDS011;58446;41.490;22.098;2023-11-19T11:44:58;13.40;;;8.35;;
70825;SDS011;58446;41.490;22.098;2023-11-19T11:47:25;17.30;;;10.00;;
70825;SDS011;58446;41.490;22.098;2023-11-19T11:49:51;12.45;;;7.85;;
70825;SDS011;58446;41.490;22.098;2023-11-19T11:52:17;10.07;;;6.43;;
70825;SDS011;58446;41.490;22.098;2023-11-19T11:54:43;9.80;;;6.30;;
70825;SDS011;58446;41.490;22.098;2023-11-19T11:57:13;8.93;;;5.93;;
70825;SDS011;58446;41.490;22.098;2023-11-19T12:02:11;9.27;;;6.33;;
70825;SDS011;58446;41.490;22.098;2023-11-19T12:04:41;7.78;;;5.25;;
70825;SDS011;58446;41.490;22.098;2023-11-19T12:07:15;8.20;;;5.63;;
70825;SDS011;58446;41.490;22.098;2023-11-19T12:09:47;7.78;;;5.15;;
70825;SDS011;58446;41.490;22.098;2023-11-19T12:12:17;10.60;;;6.50;;
70825;SDS011;58446;41.490;22.098;2023-11-19T12:19:59;9.63;;;6.82;;
70825;SDS011;58446;41.490;22.098;2023-11-19T12:22:25;8.98;;;5.30;;
70825;SDS011;58446;41.490;22.098;2023-11-19T12:24:55;6.85;;;4.10;;
70825;SDS011;58446;41.490;22.098;2023-11-19T12:27:22;7.47;;;4.80;;
70825;SDS011;58446;41.490;22.098;2023-11-19T12:29:48;42.35;;;17.60;;
70825;SDS011;58446;41.490;22.098;2023-11-19T12:32:14;13.60;;;7.07;;
70825;SDS011;58446;41.490;22.098;2023-11-19T12:34:40;12.10;;;5.97;;
70825;SDS011;58446;41.490;22.098;2023-11-19T12:37:05;19.27;;;9.97;;
70825;SDS011;58446;41.490;22.098;2023-11-19T12:39:31;14.20;;;6.32;;
70825;SDS011;58446;41.490;22.098;2023-11-19T12:41:57;26.20;;;12.98;;
70825;SDS011;58446;41.490;22.098;2023-11-19T12:44:26;16.60;;;8.40;;
70825;SDS011;58446;41.490;22.098;2023-11-19T12:49:33;14.57;;;6.82;;
70825;SDS011;58446;41.490;22.098;2023-11-19T12:51:59;34.25;;;15.25;;
70825;SDS011;58446;41.490;22.098;2023-11-19T12:54:31;15.27;;;7.47;;
70825;SDS011;58446;41.490;22.098;2023-11-19T12:57:00;23.33;;;12.75;;
70825;SDS011;58446;41.490;22.098;2023-11-19T12:59:26;13.40;;;8.32;;
70825;SDS011;58446;41.490;22.098;2023-11-19T13:01:58;21.80;;;11.73;;
70825;SDS011;58446;41.490;22.098;2023-11-19T13:04:28;14.30;;;6.50;;
70825;SDS011;58446;41.490;22.098;2023-11-19T13:06:58;14.50;;;7.95;;
70825;SDS011;58446;41.490;22.098;2023-11-19T13:09:24;17.95;;;10.57;;
70825;SDS011;58446;41.490;22.098;2023-11-19T13:11:54;14.77;;;7.57;;
70825;SDS011;58446;41.490;22.098;2023-11-19T13:14:21;17.60;;;10.75;;
70825;SDS011;58446;41.490;22.098;2023-11-19T13:16:48;23.90;;;11.30;;
70825;SDS011;58446;41.490;22.098;2023-11-19T13:19:14;43.40;;;21.17;;
70825;SDS011;58446;41.490;22.098;2023-11-19T13:21:44;19.33;;;11.98;;
70825;SDS011;58446;41.490;22.098;2023-11-19T13:24:13;16.15;;;9.75;;
70825;SDS011;58446;41.490;22.098;2023-11-19T13:26:39;16.40;;;10.27;;
70825;SDS011;58446;41.490;22.098;2023-11-19T13:29:05;15.35;;;9.55;;
70825;SDS011;58446;41.490;22.098;2023-11-19T13:31:30;14.27;;;8.90;;
70825;SDS011;58446;41.490;22.098;2023-11-19T13:33:56;13.57;;;7.25;;
70825;SDS011;58446;41.490;22.098;2023-11-19T13:36:23;8.90;;;5.50;;
70825;SDS011;58446;41.490;22.098;2023-11-19T13:38:50;10.15;;;6.32;;
70825;SDS011;58446;41.490;22.098;2023-11-19T13:41:16;7.43;;;4.70;;
70825;SDS011;58446;41.490;22.098;2023-11-19T13:43:42;8.85;;;5.63;;
70825;SDS011;58446;41.490;22.098;2023-11-19T13:46:09;11.70;;;8.10;;
70825;SDS011;58446;41.490;22.098;2023-11-19T13:48:37;11.48;;;7.00;;
70825;SDS011;58446;41.490;22.098;2023-11-19T13:51:03;14.03;;;8.80;;
70825;SDS011;58446;41.490;22.098;2023-11-19T13:53:29;20.15;;;11.88;;
70825;SDS011;58446;41.490;22.098;2023-11-19T13:55:54;13.03;;;7.67;;
70825;SDS011;58446;41.490;22.098;2023-11-19T13:58:20;15.00;;;7.47;;
70825;SDS011;58446;41.490;22.098;2023-11-19T14:00:46;11.70;;;6.55;;
70825;SDS011;58446;41.490;22.098;2023-11-19T14:03:12;13.67;;;8.50;;
70825;SDS011;58446;41.490;22.098;2023-11-19T14:05:38;25.58;;;17.67;;
70825;SDS011;58446;41.490;22.098;2023-11-19T14:08:06;21.73;;;16.80;;
70825;SDS011;58446;41.490;22.098;2023-11-19T14:10:38;29.27;;;16.47;;
70825;SDS011;58446;41.490;22.098;2023-11-19T14:13:05;52.80;;;28.67;;
70825;SDS011;58446;41.490;22.098;2023-11-19T14:15:31;18.60;;;11.23;;
70825;SDS011;58446;41.490;22.098;2023-11-19T14:17:57;9.33;;;6.53;;
70825;SDS011;58446;41.490;22.098;2023-11-19T14:20:23;11.18;;;6.10;;
70825;SDS011;58446;41.490;22.098;2023-11-19T14:22:49;9.23;;;6.07;;
70825;SDS011;58446;41.490;22.098;2023-11-19T14:25:16;10.27;;;6.25;;
70825;SDS011;58446;41.490;22.098;2023-11-19T14:27:43;11.13;;;6.43;;
70825;SDS011;58446;41.490;22.098;2023-11-19T14:30:09;11.02;;;7.25;;
70825;SDS011;58446;41.490;22.098;2023-11-19T14:32:36;8.10;;;5.40;;
70825;SDS011;58446;41.490;22.098;2023-11-19T14:35:03;8.95;;;6.10;;
70825;SDS011;58446;41.490;22.098;2023-11-19T14:37:29;7.70;;;5.73;;
70825;SDS011;58446;41.490;22.098;2023-11-19T14:39:58;9.02;;;6.03;;
70825;SDS011;58446;41.490;22.098;2023-11-19T14:42:24;9.20;;;6.40;;
70825;SDS011;58446;41.490;22.098;2023-11-19T14:44:53;12.95;;;6.40;;
70825;SDS011;58446;41.490;22.098;2023-11-19T14:47:19;10.82;;;6.50;;
70825;SDS011;58446;41.490;22.098;2023-11-19T14:49:48;11.57;;;7.60;;
70825;SDS011;58446;41.490;22.098;2023-11-19T14:52:14;8.85;;;5.63;;
70825;SDS011;58446;41.490;22.098;2023-11-19T14:54:39;7.70;;;4.63;;
70825;SDS011;58446;41.490;22.098;2023-11-19T14:57:05;7.07;;;4.50;;